Portada
METAR-TAF:

METAR-TAF

Aeroports :

Salvador, Bahia, Brasil

latitud: 12-54S, longitud: 038-20W, altitud: 6 m

Observació

L'informe es va fer fa 26 minuts, a les 23:00 UTC
Vent 11 kt del Est
Temperatura 28°C
Humitat 79%
Pressió 1013 hPa
Visibilitat 10 km o més
Escasses núvols a una alçada de 2300 ft

METAR: SBSV 082300Z 08011KT 9999 FEW023 28/24 Q1013

Hora: 20:26 (23:26 UTC)

Pronòstic

L'informe es va fer fa 7 hores i 26 minuts, a les 16:00 UTC
Pronòstic vàlid del 08 a les 18 UTC al 09 a les 18 UTC
Vent 15 kt del Est/Nord-Est
Visibilitat 10 km o més
Núvols disperses a una alçada de 2000 ft
Evolucionant progressivament
l' 08 a les 22 UTC al 08 a les 24 UTC
Vent 10 kt del Nord-Est
Evolucionant progressivament
l' 09 a les 11 UTC al 09 a les 13 UTC
Vent 15 kt del Est/Nord-Est

TAF: SBSV 081600Z 0818/0918 07015KT 9999 SCT020 TN26/0904Z TX30/0914Z BECMG 0822/0824 04010KT BECMG 0911/0913 07015KT RMK PEH

Observacions i pronòstics meteorològics de més de 4000 aeroports (METAR i TAF).

Les estacions disponibles són els punts grocs i vermells al mapa.

Posi el ratolí al punt desitjat per veure el nom de l'estació.

Feu clic per veure les observacions i els pronòstics meteorològics.

Per canviar el mapa: feu clic els botons verds amb una creu de color negre per apropar; al botó verd amb un guió per allunyar la imatge; o en les fletxes verdes per a mapes adjacents.


METAR-TAF: